createdAt,value
2022-08-26T00:01:44.233Z,5.23
2022-08-26T00:04:12.203Z,5.83
2022-08-26T00:06:42.731Z,6.37
2022-08-26T00:09:16.225Z,5.77
2022-08-26T00:11:44.687Z,5.20
2022-08-26T00:14:13.606Z,6.57
2022-08-26T00:16:40.998Z,6.00
2022-08-26T00:19:14.276Z,6.37
2022-08-26T00:21:41.343Z,6.00
2022-08-26T00:24:07.975Z,5.43
2022-08-26T00:26:34.840Z,5.63
2022-08-26T00:29:01.694Z,6.13
2022-08-26T00:31:28.621Z,5.80
2022-08-26T00:33:57.992Z,6.03
2022-08-26T00:36:24.744Z,5.53
2022-08-26T00:38:56.185Z,5.90
2022-08-26T00:41:22.737Z,5.53
2022-08-26T00:43:50.870Z,5.60
2022-08-26T00:46:21.648Z,5.53
2022-08-26T00:48:52.277Z,6.07
2022-08-26T00:51:23.010Z,5.97
2022-08-26T00:53:58.755Z,5.80
2022-08-26T00:56:38.091Z,6.30
2022-08-26T00:59:11.568Z,6.00
2022-08-26T01:01:41.327Z,5.67
2022-08-26T01:04:09.513Z,6.03
2022-08-26T01:06:36.554Z,6.17
2022-08-26T01:09:03.818Z,6.30
2022-08-26T01:11:31.798Z,6.50
2022-08-26T01:14:02.727Z,6.43
2022-08-26T01:16:30.139Z,6.70
2022-08-26T01:19:03.489Z,6.73
2022-08-26T01:21:41.285Z,6.60
2022-08-26T01:24:10.337Z,6.73
2022-08-26T01:26:43.363Z,6.70
2022-08-26T01:29:15.565Z,6.70
2022-08-26T01:31:49.617Z,6.87
2022-08-26T01:34:25.246Z,7.13
2022-08-26T01:37:16.215Z,6.40
2022-08-26T01:39:45.133Z,6.70
2022-08-26T01:42:14.971Z,7.23
2022-08-26T01:44:53.561Z,6.80
2022-08-26T01:47:23.437Z,6.57
2022-08-26T01:49:53.655Z,7.20
2022-08-26T01:52:28.058Z,6.90
2022-08-26T01:54:56.882Z,6.83
2022-08-26T01:57:24.905Z,6.73
2022-08-26T01:59:55.072Z,7.23
2022-08-26T02:02:22.639Z,6.60
2022-08-26T02:04:57.219Z,6.80
2022-08-26T02:07:26.571Z,6.43
2022-08-26T02:09:53.327Z,6.83
2022-08-26T02:12:20.459Z,6.63
2022-08-26T02:14:53.586Z,6.90
2022-08-26T02:17:24.576Z,6.47
2022-08-26T02:19:51.757Z,6.63
2022-08-26T02:22:20.832Z,6.37
2022-08-26T02:24:52.593Z,7.07
2022-08-26T02:27:32.839Z,6.50
2022-08-26T02:30:32.483Z,6.23
2022-08-26T02:33:03.623Z,6.37
2022-08-26T02:35:31.514Z,6.43
2022-08-26T02:37:58.854Z,7.03
2022-08-26T02:40:30.616Z,7.27
2022-08-26T02:42:57.894Z,6.53
2022-08-26T02:45:26.158Z,6.33
2022-08-26T02:47:53.315Z,6.77
2022-08-26T02:50:20.679Z,7.10
2022-08-26T02:52:48.559Z,6.50
2022-08-26T02:55:16.143Z,6.37
2022-08-26T02:57:43.242Z,7.70
2022-08-26T03:00:12.465Z,6.53
2022-08-26T03:02:39.327Z,6.30
2022-08-26T03:05:06.493Z,6.07
2022-08-26T03:07:33.121Z,6.87
2022-08-26T03:10:00.862Z,6.40
2022-08-26T03:12:27.673Z,7.17
2022-08-26T03:14:54.337Z,6.13
2022-08-26T03:17:20.980Z,6.80
2022-08-26T03:19:50.695Z,6.57
2022-08-26T03:22:19.565Z,6.50
2022-08-26T03:24:47.180Z,6.00
2022-08-26T03:27:14.386Z,6.97
2022-08-26T03:30:00.111Z,7.07
2022-08-26T03:32:26.930Z,6.20
2022-08-26T03:34:54.188Z,6.33
2022-08-26T03:37:21.494Z,6.53
2022-08-26T03:39:48.679Z,7.47
2022-08-26T03:42:17.537Z,6.40
2022-08-26T03:44:48.796Z,6.90
2022-08-26T03:47:15.765Z,7.30
2022-08-26T03:49:42.465Z,6.80
2022-08-26T03:52:09.160Z,7.23
2022-08-26T03:54:36.538Z,6.83
2022-08-26T03:57:03.474Z,7.30
2022-08-26T03:59:30.070Z,7.30
2022-08-26T04:01:56.702Z,7.50
2022-08-26T04:04:24.557Z,7.20
2022-08-26T04:06:58.133Z,7.27
2022-08-26T04:09:25.649Z,6.67
2022-08-26T04:11:52.226Z,6.87
2022-08-26T04:14:21.892Z,7.10
2022-08-26T04:16:49.772Z,6.97
2022-08-26T04:19:17.418Z,7.00
2022-08-26T04:21:47.823Z,6.87
2022-08-26T04:24:16.145Z,7.00
2022-08-26T04:26:44.418Z,7.50
2022-08-26T04:29:21.282Z,7.40
2022-08-26T04:31:48.323Z,7.33
2022-08-26T04:34:16.017Z,7.27
2022-08-26T04:36:44.291Z,7.57
2022-08-26T04:39:12.417Z,6.83
2022-08-26T04:41:39.775Z,7.07
2022-08-26T04:44:07.660Z,7.10
2022-08-26T04:46:34.439Z,6.80
2022-08-26T04:49:02.461Z,7.80
2022-08-26T04:51:29.097Z,7.50
2022-08-26T04:53:59.661Z,7.40
2022-08-26T04:56:29.531Z,6.67
2022-08-26T04:58:56.499Z,7.27
2022-08-26T05:01:23.947Z,7.60
2022-08-26T05:03:51.055Z,6.93
2022-08-26T05:06:19.495Z,6.83
2022-08-26T05:08:46.435Z,7.03
2022-08-26T05:11:13.476Z,7.27
2022-08-26T05:13:41.287Z,6.83
2022-08-26T05:16:13.284Z,7.00
2022-08-26T05:18:40.735Z,7.13
2022-08-26T05:21:20.453Z,6.60
2022-08-26T05:23:49.009Z,7.53
2022-08-26T05:26:16.554Z,7.47
2022-08-26T05:28:43.288Z,7.40
2022-08-26T05:31:23.289Z,6.67
2022-08-26T05:33:50.303Z,7.47
2022-08-26T05:36:20.732Z,6.83
2022-08-26T05:38:48.724Z,6.67
2022-08-26T05:41:34.579Z,6.97
2022-08-26T05:44:08.497Z,7.63
2022-08-26T05:46:36.656Z,8.07
2022-08-26T05:49:04.923Z,8.20
2022-08-26T05:51:34.883Z,7.50
2022-08-26T05:54:03.617Z,8.10
2022-08-26T05:56:30.672Z,8.57
2022-08-26T05:58:58.560Z,9.13
2022-08-26T06:01:28.036Z,8.97
2022-08-26T06:04:01.801Z,8.63
2022-08-26T06:06:34.698Z,8.53
2022-08-26T06:09:04.944Z,8.83
2022-08-26T06:11:32.521Z,8.07
2022-08-26T06:14:03.839Z,8.70
2022-08-26T06:16:34.573Z,9.33
2022-08-26T06:19:03.020Z,8.23
2022-08-26T06:21:35.160Z,8.77
2022-08-26T06:24:26.941Z,9.17
2022-08-26T06:26:56.891Z,8.47
2022-08-26T06:29:25.785Z,9.50
2022-08-26T06:31:53.986Z,9.97
2022-08-26T06:34:21.148Z,9.20
2022-08-26T06:36:49.430Z,9.80
2022-08-26T06:39:19.697Z,9.33
2022-08-26T06:41:47.315Z,9.67
2022-08-26T06:44:15.160Z,8.97
2022-08-26T06:46:43.220Z,10.03
2022-08-26T06:49:12.570Z,8.97
2022-08-26T06:51:40.777Z,8.80
2022-08-26T06:54:10.189Z,8.03
2022-08-26T06:56:43.730Z,9.07
2022-08-26T06:59:11.775Z,8.87
2022-08-26T07:01:44.767Z,7.97
2022-08-26T07:04:14.488Z,9.83
2022-08-26T07:06:50.016Z,10.03
2022-08-26T07:09:19.164Z,9.57
2022-08-26T07:11:46.227Z,9.07
2022-08-26T07:14:13.195Z,10.00
2022-08-26T07:16:41.212Z,8.37
2022-08-26T07:19:11.267Z,8.83
2022-08-26T07:21:40.208Z,9.23
2022-08-26T07:24:07.960Z,9.03
2022-08-26T07:26:35.130Z,8.50
2022-08-26T07:29:02.614Z,6.77
2022-08-26T07:31:39.441Z,8.03
2022-08-26T07:34:09.311Z,7.40
2022-08-26T07:36:36.592Z,7.40
2022-08-26T07:39:03.749Z,7.80
2022-08-26T07:44:02.347Z,6.57
2022-08-26T07:46:31.122Z,7.70
2022-08-26T07:48:58.231Z,7.60
2022-08-26T07:51:25.459Z,7.23
2022-08-26T07:53:53.182Z,7.33
2022-08-26T07:56:21.655Z,6.60
2022-08-26T07:58:51.753Z,5.97
2022-08-26T08:01:20.440Z,7.13
2022-08-26T08:03:50.506Z,7.83
2022-08-26T08:06:18.707Z,7.80
2022-08-26T08:08:46.364Z,6.57
2022-08-26T08:11:14.241Z,6.53
2022-08-26T08:13:41.272Z,7.10
2022-08-26T08:16:12.483Z,6.23
2022-08-26T08:18:40.178Z,6.33
2022-08-26T08:21:24.187Z,6.90
2022-08-26T08:23:53.479Z,6.17
2022-08-26T08:26:21.006Z,6.07
2022-08-26T08:28:48.162Z,6.17
2022-08-26T08:34:21.564Z,6.00
2022-08-26T08:36:48.963Z,5.30
2022-08-26T08:39:16.712Z,5.23
2022-08-26T08:41:48.688Z,5.00
2022-08-26T08:44:21.704Z,4.75
2022-08-26T08:46:58.502Z,5.18
2022-08-26T08:49:25.906Z,5.57
2022-08-26T08:51:57.003Z,5.03
2022-08-26T08:54:26.321Z,5.20
2022-08-26T08:57:06.989Z,4.95
2022-08-26T08:59:35.883Z,5.00
2022-08-26T09:02:20.840Z,5.53
2022-08-26T09:04:47.931Z,5.90
2022-08-26T09:07:28.220Z,5.75
2022-08-26T09:09:57.175Z,5.40
2022-08-26T09:12:29.770Z,5.18
2022-08-26T09:15:11.221Z,5.65
2022-08-26T09:18:06.945Z,5.25
2022-08-26T09:20:48.320Z,5.60
2022-08-26T09:23:15.835Z,6.30
2022-08-26T09:25:52.318Z,5.15
2022-08-26T09:28:21.310Z,5.93
2022-08-26T09:31:21.256Z,6.25
2022-08-26T09:34:17.294Z,6.95
2022-08-26T09:36:55.638Z,6.32
2022-08-26T09:39:28.002Z,6.50
2022-08-26T09:42:25.388Z,6.20
2022-08-26T09:45:04.207Z,6.28
2022-08-26T09:47:52.645Z,6.75
2022-08-26T09:50:52.219Z,6.05
2022-08-26T09:53:28.507Z,6.45
2022-08-26T09:56:16.963Z,6.60
2022-08-26T09:58:47.171Z,6.13
2022-08-26T10:01:38.158Z,6.22
2022-08-26T10:04:10.442Z,6.22
2022-08-26T10:07:05.038Z,6.53
2022-08-26T10:09:36.084Z,6.15
2022-08-26T10:12:08.220Z,7.10
2022-08-26T10:17:29.118Z,6.15
2022-08-26T10:20:05.383Z,6.65
2022-08-26T10:22:55.142Z,7.40
2022-08-26T10:25:28.271Z,6.45
2022-08-26T10:28:04.725Z,7.50
2022-08-26T10:30:38.455Z,6.13
2022-08-26T10:33:08.835Z,6.65
2022-08-26T10:35:40.882Z,7.30
2022-08-26T10:38:18.473Z,7.28
2022-08-26T10:40:53.285Z,8.25
2022-08-26T10:43:53.004Z,7.03
2022-08-26T10:46:24.120Z,7.40
2022-08-26T10:49:00.596Z,7.43
2022-08-26T10:51:36.423Z,8.07
2022-08-26T10:54:12.979Z,7.07
2022-08-26T10:56:57.883Z,7.13
2022-08-26T10:59:30.671Z,7.07
2022-08-26T11:02:28.015Z,7.32
2022-08-26T11:05:05.359Z,6.13
2022-08-26T11:07:35.379Z,6.20
2022-08-26T11:10:16.625Z,7.18
2022-08-26T11:12:45.263Z,6.80
2022-08-26T11:15:24.863Z,6.75
2022-08-26T11:17:51.587Z,6.57
2022-08-26T11:20:33.306Z,6.65
2022-08-26T11:23:28.098Z,6.63
2022-08-26T11:26:10.280Z,6.63
2022-08-26T11:28:44.240Z,6.82
2022-08-26T11:31:18.856Z,5.97
2022-08-26T11:33:47.845Z,5.70
2022-08-26T11:36:42.872Z,6.13
2022-08-26T11:39:24.098Z,6.40
2022-08-26T11:41:53.768Z,5.88
2022-08-26T11:44:23.900Z,5.60
2022-08-26T11:47:12.000Z,6.13
2022-08-26T11:49:40.061Z,7.03
2022-08-26T11:52:14.366Z,6.20
2022-08-26T11:54:41.012Z,6.60
2022-08-26T11:57:12.236Z,6.40
2022-08-26T11:59:40.697Z,6.50
2022-08-26T12:02:17.769Z,5.95
2022-08-26T12:04:48.801Z,6.03
2022-08-26T12:07:16.502Z,5.40
2022-08-26T12:09:57.957Z,5.65
2022-08-26T12:12:35.242Z,6.05
2022-08-26T12:15:15.811Z,5.90
2022-08-26T12:17:44.191Z,6.05
2022-08-26T12:20:19.225Z,6.05
2022-08-26T12:22:48.119Z,6.15
2022-08-26T12:25:23.609Z,6.55
2022-08-26T12:27:53.653Z,5.15
2022-08-26T12:30:25.991Z,6.20
2022-08-26T12:33:22.752Z,6.13
2022-08-26T12:35:54.370Z,5.95
2022-08-26T12:38:24.286Z,5.45
2022-08-26T12:40:50.927Z,5.85
2022-08-26T12:43:40.257Z,5.65
2022-08-26T12:46:08.961Z,7.03
2022-08-26T12:48:38.421Z,8.00
2022-08-26T12:51:08.948Z,7.38
2022-08-26T12:53:43.063Z,7.28
2022-08-26T12:56:38.976Z,7.47
2022-08-26T12:59:17.398Z,7.88
2022-08-26T13:01:44.717Z,7.57
2022-08-26T13:04:33.983Z,7.18
2022-08-26T13:07:13.674Z,8.50
2022-08-26T13:09:40.319Z,7.63
2022-08-26T13:12:07.039Z,8.13
2022-08-26T13:14:33.629Z,7.47
2022-08-26T13:17:00.248Z,7.47
2022-08-26T13:19:26.931Z,7.82
2022-08-26T13:21:56.299Z,7.82
2022-08-26T13:24:34.343Z,7.75
2022-08-26T13:27:02.410Z,7.55
2022-08-26T13:29:29.092Z,7.30
2022-08-26T13:31:58.263Z,7.80
2022-08-26T13:34:25.101Z,7.70
2022-08-26T13:36:55.121Z,7.75
2022-08-26T13:39:23.036Z,7.90
2022-08-26T13:41:49.978Z,8.35
2022-08-26T13:44:17.283Z,7.38
2022-08-26T13:49:15.522Z,7.78
2022-08-26T13:51:42.142Z,7.60
2022-08-26T13:54:08.930Z,7.90
2022-08-26T13:56:36.159Z,8.63
2022-08-26T13:59:03.345Z,8.15
2022-08-26T14:01:32.026Z,8.05
2022-08-26T14:03:59.490Z,7.40
2022-08-26T14:06:26.344Z,8.18
2022-08-26T14:08:52.974Z,8.15
2022-08-26T14:11:19.654Z,8.25
2022-08-26T14:13:46.247Z,7.55
2022-08-26T14:16:25.431Z,8.18
2022-08-26T14:18:52.681Z,7.18
2022-08-26T14:21:19.285Z,7.78
2022-08-26T14:23:46.038Z,7.45
2022-08-26T14:26:28.904Z,7.30
2022-08-26T14:29:00.461Z,7.28
2022-08-26T14:31:29.319Z,6.97
2022-08-26T14:33:59.469Z,7.72
2022-08-26T14:36:28.912Z,7.55
2022-08-26T14:38:58.242Z,6.63
2022-08-26T14:41:25.348Z,7.43
2022-08-26T14:43:57.830Z,7.05
2022-08-26T14:46:28.603Z,7.38
2022-08-26T14:49:01.564Z,7.30
2022-08-26T14:51:29.177Z,7.13
2022-08-26T14:54:13.922Z,6.85
2022-08-26T14:56:46.347Z,7.22
2022-08-26T14:59:17.359Z,6.50
2022-08-26T15:01:44.683Z,6.70
2022-08-26T15:04:11.548Z,6.82
2022-08-26T15:06:38.653Z,7.05
2022-08-26T15:09:05.330Z,7.05
2022-08-26T15:11:32.260Z,7.00
2022-08-26T15:13:59.903Z,7.03
2022-08-26T15:16:29.021Z,7.50
2022-08-26T15:18:56.190Z,7.00
2022-08-26T15:21:23.384Z,7.32
2022-08-26T15:23:51.536Z,7.22
2022-08-26T15:26:19.413Z,7.25
2022-08-26T15:28:46.497Z,7.28
2022-08-26T15:31:13.460Z,6.75
2022-08-26T15:33:40.369Z,9.07
2022-08-26T15:36:07.857Z,8.80
2022-08-26T15:38:38.863Z,7.85
2022-08-26T15:41:06.991Z,6.53
2022-08-26T15:43:33.627Z,6.37
2022-08-26T15:46:00.994Z,6.87
2022-08-26T15:48:28.163Z,6.90
2022-08-26T15:50:57.994Z,5.23
2022-08-26T15:53:24.933Z,6.80
2022-08-26T15:55:54.958Z,6.90
2022-08-26T15:58:24.753Z,9.77
2022-08-26T16:00:53.729Z,8.23
2022-08-26T16:03:20.598Z,11.47
2022-08-26T16:05:47.964Z,12.03
2022-08-26T16:08:15.345Z,12.87
2022-08-26T16:10:49.956Z,12.97
2022-08-26T16:13:18.714Z,10.90
2022-08-26T16:15:45.708Z,15.07
2022-08-26T16:18:13.790Z,14.13
2022-08-26T16:21:12.948Z,13.00
2022-08-26T16:23:36.392Z,9.13
2022-08-26T16:26:24.076Z,13.30
2022-08-26T16:28:51.045Z,15.83
2022-08-26T16:31:18.139Z,14.07
2022-08-26T16:33:44.859Z,17.30
2022-08-26T16:36:11.916Z,16.03
2022-08-26T16:38:39.863Z,14.83
2022-08-26T16:41:07.282Z,13.70
2022-08-26T16:43:34.556Z,14.63
2022-08-26T16:46:01.219Z,11.77
2022-08-26T16:48:27.869Z,11.17
2022-08-26T16:50:55.360Z,11.17
2022-08-26T16:53:22.390Z,12.53
2022-08-26T16:55:50.097Z,12.30
2022-08-26T16:58:17.061Z,12.77
2022-08-26T17:00:43.993Z,11.60
2022-08-26T17:03:10.635Z,11.00
2022-08-26T17:05:37.497Z,12.17
2022-08-26T17:08:04.927Z,11.23
2022-08-26T17:10:32.136Z,11.87
2022-08-26T17:12:58.776Z,13.40
2022-08-26T17:15:25.863Z,11.07
2022-08-26T17:17:53.646Z,9.10
2022-08-26T17:20:21.087Z,6.70
2022-08-26T17:22:49.540Z,6.77
2022-08-26T17:25:24.407Z,5.27
2022-08-26T17:27:51.655Z,4.30
2022-08-26T17:30:19.075Z,3.67
2022-08-26T17:32:46.261Z,3.70
2022-08-26T17:35:14.122Z,3.97
2022-08-26T17:37:41.469Z,6.30
2022-08-26T17:40:11.655Z,7.30
2022-08-26T17:42:39.702Z,7.83
2022-08-26T17:45:07.217Z,8.20
2022-08-26T17:47:34.421Z,8.33
2022-08-26T17:50:01.410Z,7.20
2022-08-26T17:52:28.920Z,8.00
2022-08-26T17:54:56.348Z,8.77
2022-08-26T17:57:23.978Z,10.87
2022-08-26T17:59:50.968Z,13.27
2022-08-26T18:02:20.844Z,11.00
2022-08-26T18:04:47.549Z,11.57
2022-08-26T18:07:14.796Z,11.53
2022-08-26T18:09:41.439Z,11.20
2022-08-26T18:12:08.231Z,10.60
2022-08-26T18:14:35.258Z,12.13
2022-08-26T18:17:02.063Z,11.33
2022-08-26T18:19:29.677Z,11.93
2022-08-26T18:21:56.730Z,11.47
2022-08-26T18:24:23.594Z,11.00
2022-08-26T18:26:50.993Z,9.93
2022-08-26T18:29:19.418Z,10.67
2022-08-26T18:31:46.598Z,11.90
2022-08-26T18:34:15.383Z,12.03
2022-08-26T18:36:42.795Z,12.23
2022-08-26T18:39:11.491Z,13.57
2022-08-26T18:41:47.467Z,12.77
2022-08-26T18:44:16.611Z,13.50
2022-08-26T18:46:44.394Z,13.20
2022-08-26T18:49:16.023Z,13.17
2022-08-26T18:51:43.279Z,15.33
2022-08-26T18:54:10.607Z,12.50
2022-08-26T18:56:39.293Z,11.57
2022-08-26T18:59:07.929Z,10.93
2022-08-26T19:01:36.293Z,12.93
2022-08-26T19:04:05.056Z,13.93
2022-08-26T19:06:35.319Z,12.73
2022-08-26T19:09:04.262Z,13.30
2022-08-26T19:11:32.483Z,13.00
2022-08-26T19:14:08.292Z,12.87
2022-08-26T19:16:35.989Z,12.83
2022-08-26T19:19:02.787Z,12.17
2022-08-26T19:21:29.744Z,12.37
2022-08-26T19:23:58.425Z,12.90
2022-08-26T19:26:26.318Z,12.87
2022-08-26T19:28:53.223Z,13.17
2022-08-26T19:31:20.149Z,13.73
2022-08-26T19:33:46.838Z,14.17
2022-08-26T19:36:17.364Z,14.03
2022-08-26T19:38:45.418Z,14.27
2022-08-26T19:41:18.134Z,15.00
2022-08-26T19:43:44.729Z,14.97
2022-08-26T19:46:18.690Z,12.67
2022-08-26T19:48:46.434Z,12.97
2022-08-26T19:51:20.354Z,13.90
2022-08-26T19:53:48.583Z,13.40
2022-08-26T19:56:15.323Z,13.77
2022-08-26T19:58:42.389Z,12.80
2022-08-26T20:01:09.773Z,14.10
2022-08-26T20:03:37.406Z,14.63
2022-08-26T20:06:06.885Z,14.67
2022-08-26T20:08:34.980Z,14.80
2022-08-26T20:11:04.771Z,14.60
2022-08-26T20:13:32.170Z,16.97
2022-08-26T20:15:58.795Z,18.90
2022-08-26T20:18:44.113Z,16.57
2022-08-26T20:21:26.401Z,17.03
2022-08-26T20:24:00.361Z,16.60
2022-08-26T20:26:29.146Z,16.77
2022-08-26T20:28:56.205Z,17.93
2022-08-26T20:31:23.906Z,17.10
2022-08-26T20:33:51.491Z,17.60
2022-08-26T20:36:20.374Z,17.77
2022-08-26T20:38:48.346Z,15.77
2022-08-26T20:41:15.776Z,18.03
2022-08-26T20:43:42.925Z,17.33
2022-08-26T20:46:17.960Z,16.80
2022-08-26T20:48:47.951Z,18.50
2022-08-26T20:51:16.077Z,19.63
2022-08-26T20:53:44.102Z,20.73
2022-08-26T20:56:12.615Z,20.80
2022-08-26T20:58:40.813Z,18.80
2022-08-26T21:01:08.208Z,19.83
2022-08-26T21:03:36.109Z,19.37
2022-08-26T21:06:03.755Z,18.83
2022-08-26T21:08:32.696Z,19.27
2022-08-26T21:11:00.661Z,18.10
2022-08-26T21:13:29.002Z,18.43
2022-08-26T21:15:59.757Z,17.50
2022-08-26T21:18:26.479Z,16.70
2022-08-26T21:20:53.215Z,18.57
2022-08-26T21:23:19.814Z,17.30
2022-08-26T21:25:47.003Z,16.83
2022-08-26T21:28:13.627Z,16.80
2022-08-26T21:30:41.339Z,18.07
2022-08-26T21:33:08.637Z,18.47
2022-08-26T21:35:35.597Z,20.53
2022-08-26T21:38:02.272Z,20.20
2022-08-26T21:40:28.933Z,20.87
2022-08-26T21:42:55.605Z,22.47
2022-08-26T21:45:22.505Z,21.97
2022-08-26T21:47:49.194Z,21.03
2022-08-26T21:50:15.834Z,23.10
2022-08-26T21:52:42.466Z,21.80
2022-08-26T21:55:11.546Z,22.87
2022-08-26T21:57:38.484Z,24.97
2022-08-26T22:00:08.813Z,25.57
2022-08-26T22:02:36.959Z,23.13
2022-08-26T22:05:03.987Z,25.87
2022-08-26T22:07:30.636Z,25.00
2022-08-26T22:09:57.214Z,23.63
2022-08-26T22:12:24.131Z,24.57
2022-08-26T22:14:50.730Z,21.50
2022-08-26T22:17:17.465Z,24.90
2022-08-26T22:19:46.415Z,24.63
2022-08-26T22:22:14.291Z,26.03
2022-08-26T22:24:43.123Z,25.83
2022-08-26T22:27:11.809Z,25.77
2022-08-26T22:29:38.610Z,26.63
2022-08-26T22:32:05.572Z,25.67
2022-08-26T22:34:32.231Z,25.50
2022-08-26T22:36:59.476Z,24.17
2022-08-26T22:39:26.555Z,25.33
2022-08-26T22:41:54.197Z,24.97
2022-08-26T22:44:22.061Z,24.53
2022-08-26T22:46:50.060Z,24.47
2022-08-26T22:49:16.814Z,24.63
2022-08-26T22:51:45.130Z,26.93
2022-08-26T22:54:12.136Z,26.87
2022-08-26T22:56:39.380Z,27.50
2022-08-26T22:59:07.889Z,27.17
2022-08-26T23:01:40.869Z,27.63
2022-08-26T23:04:08.528Z,27.10
2022-08-26T23:06:40.054Z,25.50
2022-08-26T23:09:07.556Z,28.53
2022-08-26T23:11:34.808Z,27.73
2022-08-26T23:14:02.297Z,27.97
2022-08-26T23:16:38.009Z,29.93
2022-08-26T23:19:06.410Z,29.33
2022-08-26T23:21:33.278Z,29.17
2022-08-26T23:24:00.884Z,31.80
2022-08-26T23:26:27.630Z,31.20
2022-08-26T23:28:54.909Z,35.57
2022-08-26T23:31:21.533Z,36.23
2022-08-26T23:34:06.624Z,38.20
2022-08-26T23:36:34.365Z,38.10
2022-08-26T23:39:02.480Z,39.67
2022-08-26T23:41:29.100Z,42.63
2022-08-26T23:43:55.803Z,40.93
2022-08-26T23:46:22.457Z,43.13
2022-08-26T23:48:49.030Z,42.37
2022-08-26T23:51:34.488Z,42.70
2022-08-26T23:54:01.117Z,43.50
2022-08-26T23:56:28.538Z,45.37
2022-08-26T23:58:55.329Z,47.77
